Airfield :
LOGIN :

Register | Disclaimer

   EN    FR    IT 

 










Legend :    VFR   Marginal VFR   IFR   Intensive IFR   Very Intensive IFR
Visi :
Ceiling :
>= 8 km
>= 3000ft
5 to 8 km
1000 to 3000 ft
1500m to 5 km
500 to 1000 ft
800 to 1500m
200 to 500 ft
< 800m
< 200 ft
Symbols :   Thunderstorms  Fog  Heavy snow  Heavy precipitations  Wind > 20 kt
SIGMETs :     Misc.  Thunderstorms  Icing  Turbulence  Mountain Waves  Volcanic Ashes







- Airport Elevation : 59 ft
- IATA code : TSF


LIPH - Treviso

CURRENT METAR :
  • 231450Z 18003KT 130V210 CAVOK 20/04 Q1012

EXPIRED METARs :
  • 231420Z 18003KT 150V210 CAVOK 20/03 Q1012
  • 231350Z 22005KT CAVOK 20/05 Q1012
  • 231320Z 18004KT 150V210 CAVOK 20/06 Q1011
  • 231250Z 20003KT 140V260 CAVOK 19/08 Q1011
  • 231220Z VRB02KT CAVOK 19/08 Q1012

TAF TAF LIPH
Valid from the 23 at 12:00 until the 24 at 12:00 UTC


231100Z 2312/2412 VRB05KT CAVOK
No reported NOTAMs for that airfield.
2 SIGMETs reported for the Milano FIR (LIMM) :
 
Severe turbulence
LIMM SIGMET 9 VALID 231305/231505 LIIP
LIMM MILANO FIR SEV TURB FCST WI N4614 E01005 - N4435 E01121 - N4326 E01313 - N4330 E01429 - N4429 E01319 - N4517 E01258 - N4535 E01354 - N4633 E01337 - N4706 E01209 - N4650 E01026 - N4634 E01004 - N4614 E01005 ABV FL220 MOV E NC=
Severe turbulence
LIMM SIGMET 8 VALID 231315/231515 LIIP
LIMM MILANO FIR SEV TURB OBS W OF LINE N4624 E00923 - N4335 E00812 ABV FL100 STNR NC=



MET'MAP, your aeronautical weather chart ! - Copyright ORBIFLY December 2007 - Disclaimer

ORBIFLY MET'MAP TEAM :

Programming & Development : Alexandra Zaïnal
Concept & Development : Baudouin d'Aumeries
Co-Development & Prog : Marc-Olivier Méhu
Technical & hardware support : Manuel Goepfert

Contact : metmap@orbifly.com




SOURCES & CREDITS :

   NOAA